sensor_id;sensor_type;location;lat;lon;timestamp;temperature;humidity
5617;DHT22;2830;50.656;7.568;2022-08-02T00:00:50;14.60;99.90
5617;DHT22;2830;50.656;7.568;2022-08-02T00:03:22;14.60;99.90
5617;DHT22;2830;50.656;7.568;2022-08-02T00:05:50;14.40;99.90
5617;DHT22;2830;50.656;7.568;2022-08-02T00:08:19;14.40;99.90
5617;DHT22;2830;50.656;7.568;2022-08-02T00:10:45;14.40;99.90
5617;DHT22;2830;50.656;7.568;2022-08-02T00:13:12;14.40;99.90
5617;DHT22;2830;50.656;7.568;2022-08-02T00:15:39;14.30;99.90
5617;DHT22;2830;50.656;7.568;2022-08-02T00:18:05;14.20;99.90
5617;DHT22;2830;50.656;7.568;2022-08-02T00:20:32;14.20;99.90
5617;DHT22;2830;50.656;7.568;2022-08-02T00:22:59;14.20;99.90
5617;DHT22;2830;50.656;7.568;2022-08-02T00:25:26;14.20;99.90
5617;DHT22;2830;50.656;7.568;2022-08-02T00:27:52;14.20;99.90
5617;DHT22;2830;50.656;7.568;2022-08-02T00:30:19;14.20;99.90
5617;DHT22;2830;50.656;7.568;2022-08-02T00:32:46;14.20;99.90
5617;DHT22;2830;50.656;7.568;2022-08-02T00:35:13;14.20;99.90
5617;DHT22;2830;50.656;7.568;2022-08-02T00:37:40;14.10;99.90
5617;DHT22;2830;50.656;7.568;2022-08-02T00:40:08;14.10;99.90
5617;DHT22;2830;50.656;7.568;2022-08-02T00:42:36;14.10;99.90
5617;DHT22;2830;50.656;7.568;2022-08-02T00:45:02;14.10;99.90
5617;DHT22;2830;50.656;7.568;2022-08-02T00:47:29;14.00;99.90
5617;DHT22;2830;50.656;7.568;2022-08-02T00:49:56;14.10;99.90
5617;DHT22;2830;50.656;7.568;2022-08-02T00:52:23;14.00;99.90
5617;DHT22;2830;50.656;7.568;2022-08-02T00:54:50;14.00;1.00
5617;DHT22;2830;50.656;7.568;2022-08-02T00:57:17;13.90;99.90
5617;DHT22;2830;50.656;7.568;2022-08-02T00:59:43;13.80;99.90
5617;DHT22;2830;50.656;7.568;2022-08-02T01:02:10;13.80;99.90
5617;DHT22;2830;50.656;7.568;2022-08-02T01:04:37;13.70;99.90
5617;DHT22;2830;50.656;7.568;2022-08-02T01:07:04;13.70;99.90
5617;DHT22;2830;50.656;7.568;2022-08-02T01:09:42;13.60;99.90
5617;DHT22;2830;50.656;7.568;2022-08-02T01:12:10;13.60;99.90
5617;DHT22;2830;50.656;7.568;2022-08-02T01:14:39;13.60;99.90
5617;DHT22;2830;50.656;7.568;2022-08-02T01:17:33;13.70;99.90
5617;DHT22;2830;50.656;7.568;2022-08-02T01:23:24;13.60;99.90
5617;DHT22;2830;50.656;7.568;2022-08-02T01:28:49;13.50;99.90
5617;DHT22;2830;50.656;7.568;2022-08-02T01:31:39;13.60;99.90
5617;DHT22;2830;50.656;7.568;2022-08-02T01:34:31;13.60;1.00
5617;DHT22;2830;50.656;7.568;2022-08-02T01:37:06;13.60;99.90
5617;DHT22;2830;50.656;7.568;2022-08-02T01:39:35;13.60;99.90
5617;DHT22;2830;50.656;7.568;2022-08-02T01:42:04;13.60;99.90
5617;DHT22;2830;50.656;7.568;2022-08-02T01:44:33;13.50;99.90
5617;DHT22;2830;50.656;7.568;2022-08-02T01:47:08;13.40;99.90
5617;DHT22;2830;50.656;7.568;2022-08-02T01:49:36;13.50;99.90
5617;DHT22;2830;50.656;7.568;2022-08-02T01:52:06;13.40;99.90
5617;DHT22;2830;50.656;7.568;2022-08-02T01:55:10;13.40;1.00
5617;DHT22;2830;50.656;7.568;2022-08-02T01:57:58;13.40;99.90
5617;DHT22;2830;50.656;7.568;2022-08-02T02:00:31;13.40;99.90
5617;DHT22;2830;50.656;7.568;2022-08-02T02:03:00;13.40;99.90
5617;DHT22;2830;50.656;7.568;2022-08-02T02:05:30;13.40;99.90
5617;DHT22;2830;50.656;7.568;2022-08-02T02:08:01;13.40;1.00
5617;DHT22;2830;50.656;7.568;2022-08-02T02:10:33;13.40;99.90
5617;DHT22;2830;50.656;7.568;2022-08-02T02:13:07;13.40;99.90
5617;DHT22;2830;50.656;7.568;2022-08-02T02:15:39;13.40;99.90
5617;DHT22;2830;50.656;7.568;2022-08-02T02:18:07;13.40;99.90
5617;DHT22;2830;50.656;7.568;2022-08-02T02:20:40;13.40;99.90
5617;DHT22;2830;50.656;7.568;2022-08-02T02:23:07;13.30;99.90
5617;DHT22;2830;50.656;7.568;2022-08-02T02:25:35;13.10;99.90
5617;DHT22;2830;50.656;7.568;2022-08-02T02:28:25;13.10;1.00
5617;DHT22;2830;50.656;7.568;2022-08-02T02:31:02;13.20;1.00
5617;DHT22;2830;50.656;7.568;2022-08-02T02:33:30;13.10;99.90
5617;DHT22;2830;50.656;7.568;2022-08-02T02:35:58;13.00;99.90
5617;DHT22;2830;50.656;7.568;2022-08-02T02:38:29;12.90;99.90
5617;DHT22;2830;50.656;7.568;2022-08-02T02:41:02;12.90;99.90
5617;DHT22;2830;50.656;7.568;2022-08-02T02:43:31;13.00;1.00
5617;DHT22;2830;50.656;7.568;2022-08-02T02:46:01;12.90;99.90
5617;DHT22;2830;50.656;7.568;2022-08-02T02:48:29;13.00;1.00
5617;DHT22;2830;50.656;7.568;2022-08-02T02:50:58;13.00;99.90
5617;DHT22;2830;50.656;7.568;2022-08-02T02:53:26;12.90;99.90
5617;DHT22;2830;50.656;7.568;2022-08-02T02:56:15;12.90;1.00
5617;DHT22;2830;50.656;7.568;2022-08-02T02:58:44;12.90;99.90
5617;DHT22;2830;50.656;7.568;2022-08-02T03:01:12;13.00;99.90
5617;DHT22;2830;50.656;7.568;2022-08-02T03:04:16;12.90;1.00
5617;DHT22;2830;50.656;7.568;2022-08-02T03:06:43;12.90;99.90
5617;DHT22;2830;50.656;7.568;2022-08-02T03:09:10;12.90;99.90
5617;DHT22;2830;50.656;7.568;2022-08-02T03:11:38;12.70;99.90
5617;DHT22;2830;50.656;7.568;2022-08-02T03:14:08;12.50;99.90
5617;DHT22;2830;50.656;7.568;2022-08-02T03:16:45;12.40;99.90
5617;DHT22;2830;50.656;7.568;2022-08-02T03:19:12;12.50;1.00
5617;DHT22;2830;50.656;7.568;2022-08-02T03:21:40;12.50;1.00
5617;DHT22;2830;50.656;7.568;2022-08-02T03:24:07;12.50;99.90
5617;DHT22;2830;50.656;7.568;2022-08-02T03:26:35;12.50;99.90
5617;DHT22;2830;50.656;7.568;2022-08-02T03:29:02;12.50;99.90
5617;DHT22;2830;50.656;7.568;2022-08-02T03:31:39;12.50;99.90
5617;DHT22;2830;50.656;7.568;2022-08-02T03:34:07;12.30;99.90
5617;DHT22;2830;50.656;7.568;2022-08-02T03:36:34;12.40;99.90
5617;DHT22;2830;50.656;7.568;2022-08-02T03:39:02;12.30;99.90
5617;DHT22;2830;50.656;7.568;2022-08-02T03:41:30;12.40;99.90
5617;DHT22;2830;50.656;7.568;2022-08-02T03:43:58;12.40;99.90
5617;DHT22;2830;50.656;7.568;2022-08-02T03:46:25;12.40;99.90
5617;DHT22;2830;50.656;7.568;2022-08-02T03:48:53;12.40;99.90
5617;DHT22;2830;50.656;7.568;2022-08-02T03:51:21;12.50;99.90
5617;DHT22;2830;50.656;7.568;2022-08-02T03:53:49;12.50;99.90
5617;DHT22;2830;50.656;7.568;2022-08-02T03:56:16;12.60;99.90
5617;DHT22;2830;50.656;7.568;2022-08-02T03:58:43;12.60;99.90
5617;DHT22;2830;50.656;7.568;2022-08-02T04:01:15;12.60;99.90
5617;DHT22;2830;50.656;7.568;2022-08-02T04:03:42;12.50;99.90
5617;DHT22;2830;50.656;7.568;2022-08-02T04:06:08;12.60;99.90
5617;DHT22;2830;50.656;7.568;2022-08-02T04:08:35;12.60;99.90
5617;DHT22;2830;50.656;7.568;2022-08-02T04:11:05;12.60;99.90
5617;DHT22;2830;50.656;7.568;2022-08-02T04:13:50;12.60;99.90
5617;DHT22;2830;50.656;7.568;2022-08-02T04:16:28;12.40;99.90
5617;DHT22;2830;50.656;7.568;2022-08-02T04:19:02;12.40;99.90
5617;DHT22;2830;50.656;7.568;2022-08-02T04:21:36;12.40;99.90
5617;DHT22;2830;50.656;7.568;2022-08-02T04:24:21;12.20;99.90
5617;DHT22;2830;50.656;7.568;2022-08-02T04:26:54;12.40;1.00
5617;DHT22;2830;50.656;7.568;2022-08-02T04:29:32;12.40;99.90
5617;DHT22;2830;50.656;7.568;2022-08-02T04:32:02;12.40;99.90
5617;DHT22;2830;50.656;7.568;2022-08-02T04:34:30;12.50;99.90
5617;DHT22;2830;50.656;7.568;2022-08-02T04:36:57;12.50;99.90
5617;DHT22;2830;50.656;7.568;2022-08-02T04:39:25;12.50;99.90
5617;DHT22;2830;50.656;7.568;2022-08-02T04:41:52;12.50;99.90
5617;DHT22;2830;50.656;7.568;2022-08-02T04:44:23;12.40;99.90
5617;DHT22;2830;50.656;7.568;2022-08-02T04:46:50;12.30;99.90
5617;DHT22;2830;50.656;7.568;2022-08-02T04:49:17;12.30;1.00
5617;DHT22;2830;50.656;7.568;2022-08-02T04:51:44;12.40;99.90
5617;DHT22;2830;50.656;7.568;2022-08-02T04:54:11;12.40;99.90
5617;DHT22;2830;50.656;7.568;2022-08-02T04:56:38;12.50;99.90
5617;DHT22;2830;50.656;7.568;2022-08-02T04:59:05;12.60;99.90
5617;DHT22;2830;50.656;7.568;2022-08-02T05:01:33;12.70;99.90
5617;DHT22;2830;50.656;7.568;2022-08-02T05:04:01;12.80;99.90
5617;DHT22;2830;50.656;7.568;2022-08-02T05:06:28;12.80;99.90
5617;DHT22;2830;50.656;7.568;2022-08-02T05:08:55;12.80;99.90
5617;DHT22;2830;50.656;7.568;2022-08-02T05:11:22;12.90;99.90
5617;DHT22;2830;50.656;7.568;2022-08-02T05:14:02;12.90;99.90
5617;DHT22;2830;50.656;7.568;2022-08-02T05:16:29;13.20;99.90
5617;DHT22;2830;50.656;7.568;2022-08-02T05:18:59;13.20;99.90
5617;DHT22;2830;50.656;7.568;2022-08-02T05:21:26;13.20;8.80
5617;DHT22;2830;50.656;7.568;2022-08-02T05:23:53;13.20;99.90
5617;DHT22;2830;50.656;7.568;2022-08-02T05:26:20;13.40;99.90
5617;DHT22;2830;50.656;7.568;2022-08-02T05:28:47;13.50;89.50
5617;DHT22;2830;50.656;7.568;2022-08-02T05:31:13;13.60;4.40
5617;DHT22;2830;50.656;7.568;2022-08-02T05:33:40;13.50;1.00
5617;DHT22;2830;50.656;7.568;2022-08-02T05:36:07;13.40;99.90
5617;DHT22;2830;50.656;7.568;2022-08-02T05:38:35;13.50;99.90
5617;DHT22;2830;50.656;7.568;2022-08-02T05:41:04;14.00;99.90
5617;DHT22;2830;50.656;7.568;2022-08-02T05:43:31;14.40;1.00
5617;DHT22;2830;50.656;7.568;2022-08-02T05:45:58;14.90;1.00
5617;DHT22;2830;50.656;7.568;2022-08-02T05:48:26;15.20;1.00
5617;DHT22;2830;50.656;7.568;2022-08-02T05:51:23;15.60;1.00
5617;DHT22;2830;50.656;7.568;2022-08-02T05:54:19;16.50;99.90
5617;DHT22;2830;50.656;7.568;2022-08-02T05:57:33;17.10;1.00
5617;DHT22;2830;50.656;7.568;2022-08-02T05:59:56;17.60;1.00
5617;DHT22;2830;50.656;7.568;2022-08-02T06:05:18;19.30;1.00
5617;DHT22;2830;50.656;7.568;2022-08-02T06:07:47;19.80;1.00
5617;DHT22;2830;50.656;7.568;2022-08-02T06:10:19;20.20;99.90
5617;DHT22;2830;50.656;7.568;2022-08-02T06:12:53;19.90;99.90
5617;DHT22;2830;50.656;7.568;2022-08-02T06:15:21;20.60;99.90
5617;DHT22;2830;50.656;7.568;2022-08-02T06:17:48;20.70;99.90
5617;DHT22;2830;50.656;7.568;2022-08-02T06:20:16;21.30;99.90
5617;DHT22;2830;50.656;7.568;2022-08-02T06:22:43;21.60;99.90
5617;DHT22;2830;50.656;7.568;2022-08-02T06:25:12;21.60;99.90
5617;DHT22;2830;50.656;7.568;2022-08-02T06:28:01;21.60;99.90
5617;DHT22;2830;50.656;7.568;2022-08-02T06:30:29;22.10;99.90
5617;DHT22;2830;50.656;7.568;2022-08-02T06:32:58;22.20;99.90
5617;DHT22;2830;50.656;7.568;2022-08-02T06:35:38;22.80;99.90
5617;DHT22;2830;50.656;7.568;2022-08-02T06:38:14;22.90;99.90
5617;DHT22;2830;50.656;7.568;2022-08-02T06:40:54;23.10;99.90
5617;DHT22;2830;50.656;7.568;2022-08-02T06:43:28;23.70;99.90
5617;DHT22;2830;50.656;7.568;2022-08-02T06:45:59;23.80;99.90
5617;DHT22;2830;50.656;7.568;2022-08-02T06:48:47;24.20;99.90
5617;DHT22;2830;50.656;7.568;2022-08-02T06:51:13;25.20;99.90
5617;DHT22;2830;50.656;7.568;2022-08-02T06:53:40;25.00;99.90
5617;DHT22;2830;50.656;7.568;2022-08-02T06:56:08;24.60;99.90
5617;DHT22;2830;50.656;7.568;2022-08-02T06:58:35;25.30;99.90
5617;DHT22;2830;50.656;7.568;2022-08-02T07:01:02;25.60;99.90
5617;DHT22;2830;50.656;7.568;2022-08-02T07:03:36;25.40;99.90
5617;DHT22;2830;50.656;7.568;2022-08-02T07:06:04;25.90;99.90
5617;DHT22;2830;50.656;7.568;2022-08-02T07:08:31;26.80;99.90
5617;DHT22;2830;50.656;7.568;2022-08-02T07:10:58;26.40;99.90
5617;DHT22;2830;50.656;7.568;2022-08-02T07:13:27;27.10;99.90
5617;DHT22;2830;50.656;7.568;2022-08-02T07:15:54;27.60;99.90
5617;DHT22;2830;50.656;7.568;2022-08-02T07:18:23;27.60;96.10
5617;DHT22;2830;50.656;7.568;2022-08-02T07:20:50;27.20;95.00
5617;DHT22;2830;50.656;7.568;2022-08-02T07:23:17;27.60;94.80
5617;DHT22;2830;50.656;7.568;2022-08-02T07:25:44;28.20;92.00
5617;DHT22;2830;50.656;7.568;2022-08-02T07:28:29;27.40;93.80
5617;DHT22;2830;50.656;7.568;2022-08-02T07:30:56;27.80;89.20
5617;DHT22;2830;50.656;7.568;2022-08-02T07:33:23;27.90;89.00
5617;DHT22;2830;50.656;7.568;2022-08-02T07:36:05;28.00;81.00
5617;DHT22;2830;50.656;7.568;2022-08-02T07:38:35;28.90;77.40
5617;DHT22;2830;50.656;7.568;2022-08-02T07:41:03;28.80;68.40
5617;DHT22;2830;50.656;7.568;2022-08-02T07:43:30;29.70;65.00
5617;DHT22;2830;50.656;7.568;2022-08-02T07:45:56;30.00;56.70
5617;DHT22;2830;50.656;7.568;2022-08-02T07:48:26;29.90;55.80
5617;DHT22;2830;50.656;7.568;2022-08-02T07:50:53;29.90;49.00
5617;DHT22;2830;50.656;7.568;2022-08-02T07:53:20;29.90;49.60
5617;DHT22;2830;50.656;7.568;2022-08-02T07:56:06;29.90;44.10
5617;DHT22;2830;50.656;7.568;2022-08-02T07:58:33;30.10;43.20
5617;DHT22;2830;50.656;7.568;2022-08-02T08:01:00;30.80;44.30
5617;DHT22;2830;50.656;7.568;2022-08-02T08:03:26;31.40;37.70
5617;DHT22;2830;50.656;7.568;2022-08-02T08:05:53;30.90;34.60
5617;DHT22;2830;50.656;7.568;2022-08-02T08:08:20;31.00;32.50
5617;DHT22;2830;50.656;7.568;2022-08-02T08:10:47;30.80;29.50
5617;DHT22;2830;50.656;7.568;2022-08-02T08:13:14;31.20;29.80
5617;DHT22;2830;50.656;7.568;2022-08-02T08:15:41;31.30;27.80
5617;DHT22;2830;50.656;7.568;2022-08-02T08:18:18;31.60;26.20
5617;DHT22;2830;50.656;7.568;2022-08-02T08:20:45;31.50;24.30
5617;DHT22;2830;50.656;7.568;2022-08-02T08:23:11;32.30;23.20
5617;DHT22;2830;50.656;7.568;2022-08-02T08:25:38;32.60;20.80
5617;DHT22;2830;50.656;7.568;2022-08-02T08:28:08;33.20;20.70
5617;DHT22;2830;50.656;7.568;2022-08-02T08:30:34;33.10;17.60
5617;DHT22;2830;50.656;7.568;2022-08-02T08:33:01;32.90;16.10
5617;DHT22;2830;50.656;7.568;2022-08-02T08:35:28;34.00;16.30
5617;DHT22;2830;50.656;7.568;2022-08-02T08:37:55;34.90;17.10
5617;DHT22;2830;50.656;7.568;2022-08-02T08:40:24;34.50;13.10
5617;DHT22;2830;50.656;7.568;2022-08-02T08:42:51;34.50;12.20
5617;DHT22;2830;50.656;7.568;2022-08-02T08:45:18;34.90;10.70
5617;DHT22;2830;50.656;7.568;2022-08-02T08:47:50;34.40;7.40
5617;DHT22;2830;50.656;7.568;2022-08-02T08:50:23;34.30;5.20
5617;DHT22;2830;50.656;7.568;2022-08-02T08:53:04;34.70;2.90
5617;DHT22;2830;50.656;7.568;2022-08-02T08:55:32;35.30;3.90
5617;DHT22;2830;50.656;7.568;2022-08-02T08:58:00;35.30;1.00
5617;DHT22;2830;50.656;7.568;2022-08-02T09:00:32;35.30;1.00
5617;DHT22;2830;50.656;7.568;2022-08-02T09:03:02;35.00;1.00
5617;DHT22;2830;50.656;7.568;2022-08-02T09:05:29;34.20;1.00
5617;DHT22;2830;50.656;7.568;2022-08-02T09:07:56;34.10;1.00
5617;DHT22;2830;50.656;7.568;2022-08-02T09:13:16;35.60;1.00
5617;DHT22;2830;50.656;7.568;2022-08-02T09:16:04;35.30;1.00
5617;DHT22;2830;50.656;7.568;2022-08-02T09:18:43;34.40;1.00
5617;DHT22;2830;50.656;7.568;2022-08-02T09:21:12;33.60;1.00
5617;DHT22;2830;50.656;7.568;2022-08-02T09:23:44;33.50;1.00
5617;DHT22;2830;50.656;7.568;2022-08-02T09:28:41;35.10;1.00
5617;DHT22;2830;50.656;7.568;2022-08-02T09:31:10;35.70;1.00
5617;DHT22;2830;50.656;7.568;2022-08-02T09:33:39;35.90;1.00
5617;DHT22;2830;50.656;7.568;2022-08-02T09:36:08;35.80;1.00
5617;DHT22;2830;50.656;7.568;2022-08-02T09:38:36;36.20;1.00
5617;DHT22;2830;50.656;7.568;2022-08-02T09:41:04;36.50;1.00
5617;DHT22;2830;50.656;7.568;2022-08-02T09:43:42;36.20;1.00
5617;DHT22;2830;50.656;7.568;2022-08-02T09:46:30;35.80;1.00
5617;DHT22;2830;50.656;7.568;2022-08-02T09:49:10;35.30;1.00
5617;DHT22;2830;50.656;7.568;2022-08-02T09:54:23;34.40;1.00
5617;DHT22;2830;50.656;7.568;2022-08-02T09:56:53;34.90;1.00
5617;DHT22;2830;50.656;7.568;2022-08-02T09:59:21;35.30;1.00
5617;DHT22;2830;50.656;7.568;2022-08-02T10:01:51;35.40;1.00
5617;DHT22;2830;50.656;7.568;2022-08-02T10:04:30;35.60;1.00
5617;DHT22;2830;50.656;7.568;2022-08-02T10:07:18;36.50;1.00
5617;DHT22;2830;50.656;7.568;2022-08-02T10:09:47;35.60;1.00
5617;DHT22;2830;50.656;7.568;2022-08-02T10:12:14;36.60;1.00
5617;DHT22;2830;50.656;7.568;2022-08-02T10:14:41;37.70;1.00
5617;DHT22;2830;50.656;7.568;2022-08-02T10:17:09;37.00;1.00
5617;DHT22;2830;50.656;7.568;2022-08-02T10:19:36;36.40;1.00
5617;DHT22;2830;50.656;7.568;2022-08-02T10:22:24;36.20;1.00
5617;DHT22;2830;50.656;7.568;2022-08-02T10:24:51;36.20;1.00
5617;DHT22;2830;50.656;7.568;2022-08-02T10:27:20;36.20;1.00
5617;DHT22;2830;50.656;7.568;2022-08-02T10:29:50;36.70;1.00
5617;DHT22;2830;50.656;7.568;2022-08-02T10:32:24;36.40;1.00
5617;DHT22;2830;50.656;7.568;2022-08-02T10:35:08;36.30;1.00
5617;DHT22;2830;50.656;7.568;2022-08-02T10:37:53;35.10;1.00
5617;DHT22;2830;50.656;7.568;2022-08-02T10:40:21;33.70;1.00
5617;DHT22;2830;50.656;7.568;2022-08-02T10:42:56;34.10;1.00
5617;DHT22;2830;50.656;7.568;2022-08-02T10:45:27;35.60;1.00
5617;DHT22;2830;50.656;7.568;2022-08-02T10:48:08;36.90;1.00
5617;DHT22;2830;50.656;7.568;2022-08-02T10:53:29;37.60;1.00
5617;DHT22;2830;50.656;7.568;2022-08-02T10:56:03;38.00;1.00
5617;DHT22;2830;50.656;7.568;2022-08-02T10:58:31;38.20;1.00
5617;DHT22;2830;50.656;7.568;2022-08-02T11:01:28;37.70;1.00
5617;DHT22;2830;50.656;7.568;2022-08-02T11:04:06;38.10;1.00
5617;DHT22;2830;50.656;7.568;2022-08-02T11:09:47;38.70;1.00
5617;DHT22;2830;50.656;7.568;2022-08-02T11:12:18;37.90;1.00
5617;DHT22;2830;50.656;7.568;2022-08-02T11:14:58;37.90;1.00
5617;DHT22;2830;50.656;7.568;2022-08-02T11:17:26;37.70;1.00
5617;DHT22;2830;50.656;7.568;2022-08-02T11:22:37;37.50;1.00
5617;DHT22;2830;50.656;7.568;2022-08-02T11:27:50;37.60;1.00
5617;DHT22;2830;50.656;7.568;2022-08-02T11:30:19;37.30;1.00
5617;DHT22;2830;50.656;7.568;2022-08-02T11:32:57;37.70;1.00
5617;DHT22;2830;50.656;7.568;2022-08-02T11:35:38;37.80;1.00
5617;DHT22;2830;50.656;7.568;2022-08-02T11:38:19;37.80;1.00
5617;DHT22;2830;50.656;7.568;2022-08-02T11:40:47;38.00;1.00
5617;DHT22;2830;50.656;7.568;2022-08-02T11:43:22;38.30;1.00
5617;DHT22;2830;50.656;7.568;2022-08-02T11:45:50;37.90;1.00
5617;DHT22;2830;50.656;7.568;2022-08-02T11:48:32;37.60;1.00
5617;DHT22;2830;50.656;7.568;2022-08-02T11:51:06;37.60;1.00
5617;DHT22;2830;50.656;7.568;2022-08-02T11:56:10;37.70;1.00
5617;DHT22;2830;50.656;7.568;2022-08-02T11:58:37;38.20;1.00
5617;DHT22;2830;50.656;7.568;2022-08-02T12:01:07;39.10;1.00
5617;DHT22;2830;50.656;7.568;2022-08-02T12:03:35;37.80;1.00
5617;DHT22;2830;50.656;7.568;2022-08-02T12:06:04;37.70;1.00
5617;DHT22;2830;50.656;7.568;2022-08-02T12:08:41;37.90;1.00
5617;DHT22;2830;50.656;7.568;2022-08-02T12:11:20;37.90;1.00
5617;DHT22;2830;50.656;7.568;2022-08-02T12:13:47;37.40;1.00
5617;DHT22;2830;50.656;7.568;2022-08-02T12:16:23;37.90;1.00
5617;DHT22;2830;50.656;7.568;2022-08-02T12:19:09;38.00;1.00
5617;DHT22;2830;50.656;7.568;2022-08-02T12:21:45;38.20;1.00
5617;DHT22;2830;50.656;7.568;2022-08-02T12:24:12;38.30;1.00
5617;DHT22;2830;50.656;7.568;2022-08-02T12:26:43;37.70;1.00
5617;DHT22;2830;50.656;7.568;2022-08-02T12:29:11;38.00;1.00
5617;DHT22;2830;50.656;7.568;2022-08-02T12:31:45;37.80;1.00
5617;DHT22;2830;50.656;7.568;2022-08-02T12:34:24;37.80;1.00
5617;DHT22;2830;50.656;7.568;2022-08-02T12:39:45;37.40;1.00
5617;DHT22;2830;50.656;7.568;2022-08-02T12:42:13;37.20;1.00
5617;DHT22;2830;50.656;7.568;2022-08-02T12:44:58;36.20;1.00
5617;DHT22;2830;50.656;7.568;2022-08-02T12:47:25;35.00;1.00
5617;DHT22;2830;50.656;7.568;2022-08-02T12:52:38;34.70;1.00
5617;DHT22;2830;50.656;7.568;2022-08-02T12:55:22;34.70;1.00
5617;DHT22;2830;50.656;7.568;2022-08-02T12:58:11;34.90;1.00
5617;DHT22;2830;50.656;7.568;2022-08-02T13:00:38;35.00;1.00
5617;DHT22;2830;50.656;7.568;2022-08-02T13:03:06;35.10;1.00
5617;DHT22;2830;50.656;7.568;2022-08-02T13:05:53;35.10;1.00
5617;DHT22;2830;50.656;7.568;2022-08-02T13:08:25;34.70;1.00
5617;DHT22;2830;50.656;7.568;2022-08-02T13:10:53;34.20;1.00
5617;DHT22;2830;50.656;7.568;2022-08-02T13:13:20;34.00;1.00
5617;DHT22;2830;50.656;7.568;2022-08-02T13:15:48;33.90;1.00
5617;DHT22;2830;50.656;7.568;2022-08-02T13:18:17;33.80;1.00
5617;DHT22;2830;50.656;7.568;2022-08-02T13:20:44;33.80;1.00
5617;DHT22;2830;50.656;7.568;2022-08-02T13:23:11;33.70;1.00
5617;DHT22;2830;50.656;7.568;2022-08-02T13:25:47;33.70;1.00
5617;DHT22;2830;50.656;7.568;2022-08-02T13:28:18;33.90;1.00
5617;DHT22;2830;50.656;7.568;2022-08-02T13:30:45;34.40;1.00
5617;DHT22;2830;50.656;7.568;2022-08-02T13:33:13;34.20;1.00
5617;DHT22;2830;50.656;7.568;2022-08-02T13:35:41;33.80;1.00
5617;DHT22;2830;50.656;7.568;2022-08-02T13:38:08;33.40;1.00
5617;DHT22;2830;50.656;7.568;2022-08-02T13:40:34;33.40;1.00
5617;DHT22;2830;50.656;7.568;2022-08-02T13:43:30;33.50;1.00
5617;DHT22;2830;50.656;7.568;2022-08-02T13:46:17;33.40;1.00
5617;DHT22;2830;50.656;7.568;2022-08-02T13:48:55;33.40;1.00
5617;DHT22;2830;50.656;7.568;2022-08-02T13:51:22;33.00;1.00
5617;DHT22;2830;50.656;7.568;2022-08-02T13:53:48;33.10;1.00
5617;DHT22;2830;50.656;7.568;2022-08-02T13:56:15;33.40;1.00
5617;DHT22;2830;50.656;7.568;2022-08-02T13:58:42;33.50;1.00
5617;DHT22;2830;50.656;7.568;2022-08-02T14:01:08;33.50;1.00
5617;DHT22;2830;50.656;7.568;2022-08-02T14:03:35;33.30;1.00
5617;DHT22;2830;50.656;7.568;2022-08-02T14:06:22;33.10;1.00
5617;DHT22;2830;50.656;7.568;2022-08-02T14:08:48;32.90;1.00
5617;DHT22;2830;50.656;7.568;2022-08-02T14:11:15;33.00;1.00
5617;DHT22;2830;50.656;7.568;2022-08-02T14:13:42;32.90;1.00
5617;DHT22;2830;50.656;7.568;2022-08-02T14:16:09;32.80;1.00
5617;DHT22;2830;50.656;7.568;2022-08-02T14:18:36;32.80;1.00
5617;DHT22;2830;50.656;7.568;2022-08-02T14:21:03;32.90;1.00
5617;DHT22;2830;50.656;7.568;2022-08-02T14:23:30;33.00;1.00
5617;DHT22;2830;50.656;7.568;2022-08-02T14:26:16;33.10;1.00
5617;DHT22;2830;50.656;7.568;2022-08-02T14:28:53;32.90;1.00
5617;DHT22;2830;50.656;7.568;2022-08-02T14:31:20;33.00;1.00
5617;DHT22;2830;50.656;7.568;2022-08-02T14:33:47;32.90;1.00
5617;DHT22;2830;50.656;7.568;2022-08-02T14:36:14;32.50;1.00
5617;DHT22;2830;50.656;7.568;2022-08-02T14:38:52;32.20;1.00
5617;DHT22;2830;50.656;7.568;2022-08-02T14:41:19;32.20;1.00
5617;DHT22;2830;50.656;7.568;2022-08-02T14:43:46;32.10;1.00
5617;DHT22;2830;50.656;7.568;2022-08-02T14:46:36;31.90;1.00
5617;DHT22;2830;50.656;7.568;2022-08-02T14:49:04;32.00;1.00
5617;DHT22;2830;50.656;7.568;2022-08-02T14:51:34;31.80;1.00
5617;DHT22;2830;50.656;7.568;2022-08-02T14:54:04;31.70;1.00
5617;DHT22;2830;50.656;7.568;2022-08-02T14:56:34;32.00;1.00
5617;DHT22;2830;50.656;7.568;2022-08-02T14:59:00;32.00;1.00
5617;DHT22;2830;50.656;7.568;2022-08-02T15:01:27;32.00;1.00
5617;DHT22;2830;50.656;7.568;2022-08-02T15:03:54;32.10;1.00
5617;DHT22;2830;50.656;7.568;2022-08-02T15:06:21;32.10;1.00
5617;DHT22;2830;50.656;7.568;2022-08-02T15:08:48;31.90;1.00
5617;DHT22;2830;50.656;7.568;2022-08-02T15:11:14;32.00;1.00
5617;DHT22;2830;50.656;7.568;2022-08-02T15:13:41;31.90;1.00
5617;DHT22;2830;50.656;7.568;2022-08-02T15:16:08;31.90;1.00
5617;DHT22;2830;50.656;7.568;2022-08-02T15:18:35;31.80;1.00
5617;DHT22;2830;50.656;7.568;2022-08-02T15:21:02;31.90;1.00
5617;DHT22;2830;50.656;7.568;2022-08-02T15:23:49;31.70;1.00
5617;DHT22;2830;50.656;7.568;2022-08-02T15:26:15;31.50;1.00
5617;DHT22;2830;50.656;7.568;2022-08-02T15:28:43;31.40;1.00
5617;DHT22;2830;50.656;7.568;2022-08-02T15:31:10;31.20;1.00
5617;DHT22;2830;50.656;7.568;2022-08-02T15:33:48;31.20;1.00
5617;DHT22;2830;50.656;7.568;2022-08-02T15:36:15;31.10;1.00
5617;DHT22;2830;50.656;7.568;2022-08-02T15:38:42;31.10;1.00
5617;DHT22;2830;50.656;7.568;2022-08-02T15:41:09;31.00;1.00
5617;DHT22;2830;50.656;7.568;2022-08-02T15:43:37;31.00;1.00
5617;DHT22;2830;50.656;7.568;2022-08-02T15:46:24;31.00;1.00
5617;DHT22;2830;50.656;7.568;2022-08-02T15:48:56;30.90;1.00
5617;DHT22;2830;50.656;7.568;2022-08-02T15:51:25;30.80;1.00
5617;DHT22;2830;50.656;7.568;2022-08-02T15:53:52;30.80;1.00
5617;DHT22;2830;50.656;7.568;2022-08-02T15:56:18;30.60;1.00
5617;DHT22;2830;50.656;7.568;2022-08-02T15:58:50;30.60;1.00
5617;DHT22;2830;50.656;7.568;2022-08-02T16:01:22;30.60;1.00
5617;DHT22;2830;50.656;7.568;2022-08-02T16:03:49;30.60;1.00
5617;DHT22;2830;50.656;7.568;2022-08-02T16:06:16;30.70;1.00
5617;DHT22;2830;50.656;7.568;2022-08-02T16:08:43;30.50;1.00
5617;DHT22;2830;50.656;7.568;2022-08-02T16:11:21;30.50;1.00
5617;DHT22;2830;50.656;7.568;2022-08-02T16:13:48;30.50;1.00
5617;DHT22;2830;50.656;7.568;2022-08-02T16:16:23;30.50;1.00
5617;DHT22;2830;50.656;7.568;2022-08-02T16:18:50;30.50;1.00
5617;DHT22;2830;50.656;7.568;2022-08-02T16:21:17;30.40;1.00
5617;DHT22;2830;50.656;7.568;2022-08-02T16:23:44;30.30;1.00
5617;DHT22;2830;50.656;7.568;2022-08-02T16:26:29;30.20;1.00
5617;DHT22;2830;50.656;7.568;2022-08-02T16:28:57;30.10;1.00
5617;DHT22;2830;50.656;7.568;2022-08-02T16:31:24;30.00;1.00
5617;DHT22;2830;50.656;7.568;2022-08-02T16:33:51;30.10;1.00
5617;DHT22;2830;50.656;7.568;2022-08-02T16:36:23;30.10;1.00
5617;DHT22;2830;50.656;7.568;2022-08-02T16:38:50;30.10;1.00
5617;DHT22;2830;50.656;7.568;2022-08-02T16:41:17;30.10;1.00
5617;DHT22;2830;50.656;7.568;2022-08-02T16:43:44;30.10;1.00
5617;DHT22;2830;50.656;7.568;2022-08-02T16:46:10;29.90;1.00
5617;DHT22;2830;50.656;7.568;2022-08-02T16:48:38;29.80;1.00
5617;DHT22;2830;50.656;7.568;2022-08-02T16:51:05;29.70;1.00
5617;DHT22;2830;50.656;7.568;2022-08-02T16:53:39;29.70;1.00
5617;DHT22;2830;50.656;7.568;2022-08-02T16:56:27;29.60;1.00
5617;DHT22;2830;50.656;7.568;2022-08-02T16:58:54;29.60;1.00
5617;DHT22;2830;50.656;7.568;2022-08-02T17:01:25;29.50;1.00
5617;DHT22;2830;50.656;7.568;2022-08-02T17:04:12;29.40;1.00
5617;DHT22;2830;50.656;7.568;2022-08-02T17:06:41;29.40;1.00
5617;DHT22;2830;50.656;7.568;2022-08-02T17:09:18;29.40;1.00
5617;DHT22;2830;50.656;7.568;2022-08-02T17:12:05;29.40;1.00